Terminal Aerodrome Forecast
Issued by NWS

Home | Current Version | Previous Version | Text Only | Print | Product List | Glossary On
Versions: 1 2 3 4 5 6 7 8 9 10 11 12 13
000
FTUS42 KMLB 261100
TAFFPR
TAF
KFPR 261140Z 2612/2712 22005KT P6SM SCT030 SCT250
     FM261700 11010KT P6SM VCTS SCT035CB SCT080
      TEMPO 2618/2620 3SM TSRA BKN035CB OVC080
     FM270200 21005KT P6SM SCT080 BKN250=

USA.gov is the U.S. government's official web portal to all federal, state and local government web resources and services.